Time;durP1;ratioP1;P1;durP2;ratioP2;P2;SDS_P1;SDS_P2;PMS_P1;PMS_P2;Temp;Humidity;BMP_temperature;BMP_pressure;BME280_temperature;BME280_humidity;BME280_pressure;Samples;Min_cycle;Max_cycle;Signal;HPM_P1;HPM_P2
2022/05/23 00:01:33;;;;;;;1999.90;999.90;;;;;;;22.91;38.55;94733.91;5069174;28;20021;-66
2022/05/23 00:03:58;;;;;;;1999.90;999.90;;;;;;;22.89;38.44;94728.09;5068191;28;20027;-67
2022/05/23 00:06:23;;;;;;;1999.90;999.90;;;;;;;22.94;38.45;94717.63;5067980;28;20116;-67
2022/05/23 00:08:52;;;;;;;1999.90;999.90;;;;;;;22.94;38.46;94717.63;5067718;28;20040;-67
2022/05/23 00:11:19;;;;;;;1999.90;999.90;;;;;;;22.89;38.49;94725.41;5069151;28;20065;-67
2022/05/23 00:13:45;;;;;;;1999.90;999.90;;;;;;;22.78;39.09;94717.25;5067498;28;20031;-67
2022/05/23 00:16:17;;;;;;;1999.90;999.90;;;;;;;22.82;39.08;94726.91;5068104;28;20032;-66
2022/05/23 00:18:42;;;;;;;1999.90;999.90;;;;;;;22.74;39.09;94711.84;5071604;28;20477;-67
2022/05/23 00:21:08;;;;;;;1999.90;999.90;;;;;;;22.79;39.38;94716.88;5071585;28;20029;-67
2022/05/23 00:23:33;;;;;;;1999.90;999.90;;;;;;;22.81;39.22;94717.22;5071589;28;20027;-66
2022/05/23 00:25:58;;;;;;;1999.90;999.90;;;;;;;22.79;39.14;94710.66;5072530;28;20035;-68
2022/05/23 00:28:24;;;;;;;1999.90;999.90;;;;;;;22.89;39.18;94717.25;5072422;28;20037;-66
2022/05/23 00:30:49;;;;;;;1999.90;999.90;;;;;;;22.91;39.13;94709.50;5071538;28;20021;-67
2022/05/23 00:35:58;;;;;;;1999.90;999.90;;;;;;;22.86;38.91;94705.22;5072900;28;20040;-66
2022/05/23 00:38:24;;;;;;;1999.90;999.90;;;;;;;22.82;38.93;94694.38;5088170;28;20020;-67
2022/05/23 00:43:41;;;;;;;;;;;;;;;22.76;38.96;94706.03;5074775;28;20063;-67
2022/05/23 00:46:07;;;;;;;1999.90;999.90;;;;;;;22.72;39.20;94711.44;5085197;28;20368;-67
2022/05/23 00:48:32;;;;;;;1999.90;999.90;;;;;;;22.70;39.28;94716.50;5092581;28;20392;-67
2022/05/23 00:51:01;;;;;;;1999.90;999.90;;;;;;;22.71;39.43;94720.75;5092853;28;20504;-67
2022/05/23 00:53:34;;;;;;;1999.90;999.90;;;;;;;22.64;39.44;94717.31;5092020;28;20020;-67
2022/05/23 00:56:00;;;;;;;1999.90;999.90;;;;;;;22.66;39.51;94723.88;5091601;28;20036;-67
2022/05/23 00:58:30;;;;;;;1999.90;999.90;;;;;;;22.56;39.64;94720.00;5091270;28;20485;-68
2022/05/23 01:00:59;;;;;;;1999.90;999.90;;;;;;;22.48;39.99;94723.16;5086909;28;20028;-67
2022/05/23 01:03:24;;;;;;;1999.90;999.90;;;;;;;22.10;40.63;94714.63;5072435;28;20063;-67
2022/05/23 01:05:54;;;;;;;1999.90;999.90;;;;;;;22.09;40.81;94725.84;5072784;28;20426;-66
2022/05/23 01:08:20;;;;;;;1999.90;999.90;;;;;;;22.17;40.67;94714.66;5085612;28;20089;-66
2022/05/23 01:10:46;;;;;;;1999.90;999.90;;;;;;;22.26;40.36;94698.75;5091616;28;20028;-66
2022/05/23 01:13:11;;;;;;;1999.90;999.90;;;;;;;22.26;40.30;94695.28;5090389;28;20546;-66
2022/05/23 01:15:37;;;;;;;1999.90;999.90;;;;;;;22.34;40.25;94701.47;5071459;28;20045;-66
2022/05/23 01:18:03;;;;;;;1999.90;999.90;;;;;;;22.13;40.33;94686.03;5071005;28;20393;-66
2022/05/23 01:20:29;;;;;;;1999.90;999.90;;;;;;;22.27;40.25;94691.44;5090792;28;20102;-66
2022/05/23 01:23:06;;;;;;;1999.90;999.90;;;;;;;22.48;40.13;94698.75;5092183;28;20545;-66
2022/05/23 01:25:34;;;;;;;1999.90;999.90;;;;;;;22.28;40.16;94688.34;5091114;28;20043;-67
2022/05/23 01:28:00;;;;;;;1999.90;999.90;;;;;;;22.39;40.14;94698.38;5090646;28;20346;-67
2022/05/23 01:30:25;;;;;;;1999.90;999.90;;;;;;;22.33;40.10;94687.16;5077053;28;20028;-67
2022/05/23 01:32:51;;;;;;;1999.90;999.90;;;;;;;22.36;39.88;94691.03;5070433;28;20086;-67
2022/05/23 01:35:16;;;;;;;1999.90;999.90;;;;;;;22.43;40.11;94691.03;5070467;28;20044;-68
2022/05/23 01:37:41;;;;;;;1999.90;999.90;;;;;;;22.40;40.00;94686.38;5072112;28;20033;-66
2022/05/23 01:40:10;;;;;;;1999.90;999.90;;;;;;;22.38;40.30;94673.22;5072210;28;20032;-67
2022/05/23 01:42:36;;;;;;;1999.90;999.90;;;;;;;22.33;39.99;94654.66;5072027;28;20020;-66
2022/05/23 01:45:02;;;;;;;1999.90;999.90;;;;;;;22.54;39.86;94678.22;5070874;28;20039;-67
2022/05/23 01:47:27;;;;;;;1999.90;999.90;;;;;;;22.38;40.11;94667.81;5070850;28;20115;-67
2022/05/23 01:49:53;;;;;;;1999.90;999.90;;;;;;;22.44;39.93;94660.03;5070182;28;20137;-67
2022/05/23 01:52:18;;;;;;;1999.90;999.90;;;;;;;22.45;40.16;94662.34;5071825;28;20024;-67
2022/05/23 01:54:43;;;;;;;1999.90;999.90;;;;;;;22.35;40.14;94665.09;5089649;28;20032;-67
2022/05/23 01:57:11;;;;;;;1999.90;999.90;;;;;;;22.43;40.08;94666.63;5090478;28;20590;-67
2022/05/23 02:02:21;;;;;;;1999.90;999.90;;;;;;;22.29;40.25;94662.00;5071683;28;20031;-66
2022/05/23 02:04:47;;;;;;;1999.90;999.90;;;;;;;22.47;40.07;94668.16;5070149;28;20017;-67
2022/05/23 02:07:13;;;;;;;1999.90;999.90;;;;;;;22.48;40.02;94663.53;5070029;28;20032;-67
2022/05/23 02:09:38;;;;;;;1999.90;999.90;;;;;;;22.42;40.05;94663.16;5070451;28;20370;-67
2022/05/23 02:12:05;;;;;;;1999.90;999.90;;;;;;;22.58;40.11;94665.44;5086554;28;20054;-67
2022/05/23 02:14:31;;;;;;;1999.90;999.90;;;;;;;22.63;39.89;94656.91;5072641;28;20378;-66
2022/05/23 02:16:56;;;;;;;1999.90;999.90;;;;;;;22.69;39.92;94662.69;5071104;28;20024;-66
2022/05/23 02:19:21;;;;;;;1999.90;999.90;;;;;;;22.62;40.21;94677.00;5070703;28;20028;-67
2022/05/23 02:21:47;;;;;;;1999.90;999.90;;;;;;;22.51;39.95;94670.84;5069707;28;20028;-67
2022/05/23 02:24:12;;;;;;;1999.90;999.90;;;;;;;22.67;39.51;94676.59;5083071;28;20024;-66
2022/05/23 02:26:38;;;;;;;1999.90;999.90;;;;;;;22.72;40.01;94667.28;5091297;28;20461;-67
2022/05/23 02:29:03;;;;;;;1999.90;999.90;;;;;;;22.61;39.93;94653.78;5088617;28;20549;-67
2022/05/23 02:31:30;;;;;;;1999.90;999.90;;;;;;;22.77;40.08;94664.94;5070295;28;20044;-66
2022/05/23 02:33:55;;;;;;;1999.90;999.90;;;;;;;22.80;39.98;94647.91;5070701;28;20031;-66
2022/05/23 02:36:21;;;;;;;1999.90;999.90;;;;;;;22.47;40.56;94661.94;5069160;28;20477;-67
2022/05/23 02:38:46;;;;;;;1999.90;999.90;;;;;;;22.63;40.04;94656.91;5072256;28;20028;-67
2022/05/23 02:41:11;;;;;;;1999.90;999.90;;;;;;;22.59;40.16;94629.03;5088747;28;20019;-66
2022/05/23 02:43:37;;;;;;;1999.90;999.90;;;;;;;22.62;40.29;94628.22;5089539;28;20379;-66
2022/05/23 02:46:03;;;;;;;1999.90;999.90;;;;;;;22.56;40.26;94629.78;5086323;28;20032;-67
2022/05/23 02:48:28;;;;;;;1999.90;999.90;;;;;;;22.38;40.59;94626.38;5088982;28;20028;-68
2022/05/23 02:50:54;;;;;;;1999.90;999.90;;;;;;;22.48;40.77;94620.16;5090578;28;20104;-67
2022/05/23 02:53:19;;;;;;;1999.90;999.90;;;;;;;22.50;40.64;94610.47;5083781;28;20036;-68
2022/05/23 02:55:44;;;;;;;1999.90;999.90;;;;;;;22.52;40.58;94612.75;5069278;28;20051;-67
2022/05/23 02:58:11;;;;;;;1999.90;999.90;;;;;;;22.46;40.62;94606.22;5075539;28;20038;-67
2022/05/23 03:00:37;;;;;;;1999.90;999.90;;;;;;;22.42;40.85;94600.03;5076434;28;20449;-67
2022/05/23 03:03:04;;;;;;;1999.90;999.90;;;;;;;22.35;40.78;94613.59;5069106;28;20063;-67
2022/05/23 03:05:39;;;;;;;1999.90;999.90;;;;;;;22.24;40.83;94603.56;5069159;28;20035;-67
2022/05/23 03:08:05;;;;;;;1999.90;999.90;;;;;;;22.36;40.77;94615.91;5069993;28;20029;-67
2022/05/23 03:10:31;;;;;;;1999.90;999.90;;;;;;;22.10;41.04;94592.75;5069206;28;20028;-69
2022/05/23 03:12:56;;;;;;;1999.90;999.90;;;;;;;22.26;41.34;94611.31;5068219;28;20554;-68
2022/05/23 03:15:22;;;;;;;1999.90;999.90;;;;;;;22.29;41.01;94596.97;5078400;28;20063;-67
2022/05/23 03:17:48;;;;;;;1999.90;999.90;;;;;;;22.33;41.03;94602.41;5089083;28;20035;-67
2022/05/23 03:20:14;;;;;;;1999.90;999.90;;;;;;;22.23;41.07;94588.50;5088233;28;20024;-67
2022/05/23 03:28:09;;;;;;;1999.90;999.90;;;;;;;22.29;41.22;94610.53;5088224;28;20511;-67
2022/05/23 03:30:34;;;;;;;1999.90;999.90;;;;;;;22.30;41.45;94607.41;5078780;28;20052;-68
2022/05/23 03:33:00;;;;;;;1999.90;999.90;;;;;;;22.31;41.43;94602.78;5090027;28;20027;-67
2022/05/23 03:35:31;;;;;;;1999.90;999.90;;;;;;;22.36;41.34;94594.25;5088606;28;20020;-67
2022/05/23 03:37:57;;;;;;;1999.90;999.90;;;;;;;22.42;41.61;94598.13;5088590;28;20032;-67
2022/05/23 03:40:22;;;;;;;1999.90;999.90;;;;;;;22.19;41.55;94579.59;5089838;28;20020;-68
2022/05/23 03:42:48;;;;;;;1999.90;999.90;;;;;;;22.26;41.56;94590.41;5082981;28;20025;-68
2022/05/23 03:45:14;;;;;;;1999.90;999.90;;;;;;;21.96;42.02;94571.13;5074337;28;20146;-68
2022/05/23 03:47:39;;;;;;;1999.90;999.90;;;;;;;22.08;41.86;94568.00;5089939;28;20118;-68
2022/05/23 03:50:05;;;;;;;1999.90;999.90;;;;;;;22.12;41.89;94566.09;5089322;28;20468;-68
2022/05/23 03:52:31;;;;;;;1999.90;999.90;;;;;;;22.22;41.96;94578.81;5085767;28;20035;-68
2022/05/23 03:54:56;;;;;;;1999.90;999.90;;;;;;;22.26;41.94;94565.25;5072521;28;20031;-67
2022/05/23 03:57:23;;;;;;;1999.90;999.90;;;;;;;22.35;41.80;94570.25;5073309;28;20056;-67
2022/05/23 03:59:49;;;;;;;1999.90;999.90;;;;;;;22.44;41.63;94576.81;5071555;28;20464;-67
2022/05/23 04:02:14;;;;;;;1999.90;999.90;;;;;;;22.37;41.63;94554.38;5073465;28;20035;-68
2022/05/23 04:04:40;;;;;;;1999.90;999.90;;;;;;;22.42;41.44;94557.47;5072381;28;20020;-67
2022/05/23 04:07:07;;;;;;;1999.90;999.90;;;;;;;22.37;41.80;94543.53;5072868;28;20037;-67
2022/05/23 04:09:33;;;;;;;1999.90;999.90;;;;;;;22.34;41.70;94544.34;5084781;28;20063;-67
2022/05/23 04:11:59;;;;;;;1999.90;999.90;;;;;;;22.33;41.57;94553.63;5091798;28;20028;-68
2022/05/23 04:14:26;;;;;;;1999.90;999.90;;;;;;;22.36;42.09;94556.31;5088850;28;20039;-68
2022/05/23 04:16:52;;;;;;;1999.90;999.90;;;;;;;22.38;41.91;94558.66;5092428;28;20096;-67
2022/05/23 04:19:18;;;;;;;1999.90;999.90;;;;;;;22.51;41.80;94560.50;5093222;28;20024;-67
2022/05/23 04:21:45;;;;;;;1999.90;999.90;;;;;;;22.66;41.79;94565.84;5093555;28;20027;-67
2022/05/23 04:24:13;;;;;;;1999.90;999.90;;;;;;;22.86;41.74;94555.28;5076600;28;20039;-68
2022/05/23 04:26:38;;;;;;;1999.90;999.90;;;;;;;23.02;41.09;94531.97;5073115;28;20020;-67
2022/05/23 04:29:06;;;;;;;1999.90;999.90;;;;;;;23.43;40.58;94552.97;5072226;28;20053;-67
2022/05/23 04:31:32;;;;;;;1999.90;999.90;;;;;;;23.60;40.30;94562.16;5071175;28;20032;-68
2022/05/23 04:36:42;;;;;;;1999.90;999.90;;;;;;;23.85;39.85;94551.88;5073095;28;20047;-68
2022/05/23 04:39:07;;;;;;;1999.90;999.90;;;;;;;23.92;39.50;94540.16;5072685;28;20029;-67
2022/05/23 04:41:33;;;;;;;1999.90;999.90;;;;;;;24.01;39.69;94551.31;5071526;28;20107;-68
2022/05/23 04:43:59;;;;;;;1999.90;999.90;;;;;;;24.10;39.40;94558.97;5071246;28;20447;-68
2022/05/23 04:46:25;;;;;;;1999.90;999.90;;;;;;;24.13;39.51;94561.66;5072129;28;20095;-68
2022/05/23 04:51:35;;;;;;;1999.90;999.90;;;;;;;24.25;39.23;94546.75;5072946;28;20038;-68
2022/05/23 04:54:00;;;;;;;1999.90;999.90;;;;;;;24.37;39.02;94537.34;5071276;28;20021;-68
2022/05/23 04:56:27;;;;;;;1999.90;999.90;;;;;;;24.46;39.03;94534.91;5071990;28;20514;-68
2022/05/23 04:58:52;;;;;;;1999.90;999.90;;;;;;;24.44;38.83;94525.63;5070907;28;20052;-68
2022/05/23 05:01:18;;;;;;;1999.90;999.90;;;;;;;24.50;38.73;94532.13;5080107;28;20107;-68
2022/05/23 05:03:43;;;;;;;1999.90;999.90;;;;;;;24.51;38.95;94511.94;5070572;28;20025;-68
2022/05/23 05:06:09;;;;;;;1999.90;999.90;;;;;;;24.64;38.85;94521.84;5072326;28;20031;-68
2022/05/23 05:08:35;;;;;;;1999.90;999.90;;;;;;;24.61;38.64;94508.28;5070233;28;20024;-67
2022/05/23 05:11:04;;;;;;;1999.90;999.90;;;;;;;24.66;38.50;94496.19;5070491;28;20398;-68
2022/05/23 05:13:32;;;;;;;1999.90;999.90;;;;;;;24.69;38.61;94500.81;5070901;28;20064;-68
2022/05/23 05:16:02;;;;;;;1999.90;999.90;;;;;;;24.73;38.59;94504.28;5076645;28;20032;-68
2022/05/23 05:18:28;;;;;;;1999.90;999.90;;;;;;;24.76;38.66;94504.19;5092051;28;20097;-68
2022/05/23 05:20:53;;;;;;;1999.90;999.90;;;;;;;24.76;38.87;94504.19;5090676;28;20519;-68
2022/05/23 05:23:19;;;;;;;1999.90;999.90;;;;;;;24.77;39.27;94503.03;5091974;28;20099;-67
2022/05/23 05:25:44;;;;;;;1999.90;999.90;;;;;;;24.83;39.17;94493.22;5080660;28;20032;-69
2022/05/23 05:28:09;;;;;;;1999.90;999.90;;;;;;;24.96;39.05;94495.38;5072905;28;20107;-69
2022/05/23 05:30:47;;;;;;;1999.90;999.90;;;;;;;25.16;38.85;94501.69;5070552;28;20035;-69
2022/05/23 05:33:18;;;;;;;1999.90;999.90;;;;;;;25.01;38.63;94476.63;5072152;28;20218;-71
2022/05/23 05:35:53;;;;;;;1999.90;999.90;;;;;;;25.22;38.71;94491.88;5071199;28;20020;-71
2022/05/23 05:38:23;;;;;;;1999.90;999.90;;;;;;;25.53;38.48;94506.13;5068488;28;20028;-72
2022/05/23 05:40:56;;;;;;;1999.90;999.90;;;;;;;25.70;37.79;94498.09;5071584;28;20419;-71
2022/05/23 05:43:30;;;;;;;1999.90;999.90;;;;;;;25.90;37.67;94512.53;5070966;28;20024;-69
2022/05/23 05:45:59;;;;;;;1999.90;999.90;;;;;;;26.09;37.75;94514.47;5077130;28;20036;-68
2022/05/23 05:48:27;;;;;;;1999.90;999.90;;;;;;;26.09;37.75;94509.03;5090564;28;20134;-70
2022/05/23 05:50:52;;;;;;;1999.90;999.90;;;;;;;26.37;37.54;94513.16;5090717;28;20372;-68
2022/05/23 05:53:27;;;;;;;1999.90;999.90;;;;;;;26.67;36.43;94514.13;5088699;28;20028;-69
2022/05/23 05:55:52;;;;;;;1999.90;999.90;;;;;;;26.71;36.07;94509.34;5088711;28;20112;-69
2022/05/23 05:58:18;;;;;;;1999.90;999.90;;;;;;;26.71;36.43;94520.25;5091542;28;20460;-70
2022/05/23 06:00:43;;;;;;;1999.90;999.90;;;;;;;26.76;36.13;94517.03;5089432;28;20058;-71
2022/05/23 06:03:09;;;;;;;1999.90;999.90;;;;;;;26.78;35.97;94511.94;5069964;28;20025;-69
2022/05/23 06:11:23;;;;;;;1999.90;999.90;;;;;;;26.80;35.80;94522.44;5071535;28;20107;-70
2022/05/23 06:13:48;;;;;;;1999.90;999.90;;;;;;;26.84;36.41;94523.88;5071689;28;20036;-67
2022/05/23 06:16:13;;;;;;;1999.90;999.90;;;;;;;27.03;36.02;94529.72;5067898;28;20020;-69
2022/05/23 06:18:38;;;;;;;1999.90;999.90;;;;;;;26.40;36.63;94530.63;5071137;28;20032;-70
2022/05/23 06:21:09;;;;;;;1999.90;999.90;;;;;;;26.49;36.78;94527.38;5071083;28;20025;-67
2022/05/23 06:23:35;;;;;;;1999.90;999.90;;;;;;;26.77;36.63;94534.97;5069660;28;20512;-67
2022/05/23 06:26:00;;;;;;;1999.90;999.90;;;;;;;27.00;36.38;94531.31;5069100;28;20103;-67
2022/05/23 06:28:26;;;;;;;1999.90;999.90;;;;;;;27.21;35.97;94535.56;5069178;28;20032;-66
2022/05/23 06:30:51;;;;;;;1999.90;999.90;;;;;;;27.65;35.27;94542.31;5070847;28;20064;-67
2022/05/23 06:33:16;;;;;;;1999.90;999.90;;;;;;;27.76;34.55;94547.53;5068484;28;20028;-67
2022/05/23 06:35:42;;;;;;;1999.90;999.90;;;;;;;27.99;34.57;94558.22;5070586;28;20037;-66
2022/05/23 06:38:07;;;;;;;1999.90;999.90;;;;;;;28.11;34.03;94545.84;5069903;28;20031;-66
2022/05/23 06:40:34;;;;;;;1999.90;999.90;;;;;;;28.17;34.36;94562.47;5070677;28;20051;-66
2022/05/23 06:43:01;;;;;;;1999.90;999.90;;;;;;;28.32;34.25;94560.91;5069586;28;20021;-67
2022/05/23 06:45:27;;;;;;;1999.90;999.90;;;;;;;28.47;34.15;94550.34;5075389;28;20035;-67
2022/05/23 06:47:52;;;;;;;1999.90;999.90;;;;;;;28.65;33.45;94563.53;5073924;28;20036;-68
2022/05/23 06:50:18;;;;;;;1999.90;999.90;;;;;;;28.61;33.33;94565.59;5070218;28;20031;-67
2022/05/23 06:52:43;;;;;;;1999.90;999.90;;;;;;;28.67;33.27;94575.59;5081131;28;20480;-66
2022/05/23 06:55:09;;;;;;;1999.90;999.90;;;;;;;28.63;33.82;94568.69;5078936;28;20112;-66
2022/05/23 06:57:34;;;;;;;1999.90;999.90;;;;;;;28.60;33.72;94561.31;5070319;28;20036;-66
2022/05/23 07:00:00;;;;;;;1999.90;999.90;;;;;;;28.75;33.73;94581.59;5068709;28;20029;-67
2022/05/23 07:02:26;;;;;;;1999.90;999.90;;;;;;;28.64;33.82;94578.41;5070036;28;20052;-67
2022/05/23 07:13:14;;;;;;;1999.90;999.90;;;;;;;25.36;39.34;94630.47;5073161;28;20484;-66
2022/05/23 07:15:46;;;;;;;1999.90;999.90;;;;;;;23.85;44.44;94682.25;5089281;28;20111;-66
2022/05/23 07:18:15;;;;;;;1999.90;999.90;;;;;;;22.58;47.27;94711.50;5073149;28;20032;-67
2022/05/23 07:20:41;;;;;;;1999.90;999.90;;;;;;;22.72;47.34;94695.19;5068475;28;20487;-67
2022/05/23 07:23:07;;;;;;;1999.90;999.90;;;;;;;22.59;47.75;94710.34;5081171;28;20028;-66
2022/05/23 07:25:33;;;;;;;1999.90;999.90;;;;;;;22.24;48.29;94687.56;5070691;28;20094;-66
2022/05/23 07:27:59;;;;;;;1999.90;999.90;;;;;;;22.04;48.56;94700.69;5069652;28;20033;-67
2022/05/23 07:30:25;;;;;;;1999.90;999.90;;;;;;;21.55;49.14;94674.41;5068673;28;20469;-66
2022/05/23 07:32:51;;;;;;;1999.90;999.90;;;;;;;22.58;47.33;94689.81;5068474;28;20031;-67
2022/05/23 07:35:17;;;;;;;1999.90;999.90;;;;;;;21.64;48.91;94693.72;5082725;28;20043;-66
2022/05/23 07:37:43;;;;;;;1999.90;999.90;;;;;;;22.35;47.19;94698.38;5081352;28;20077;-66
2022/05/23 07:40:09;;;;;;;1999.90;999.90;;;;;;;22.47;46.43;94684.44;5068047;28;20028;-66
2022/05/23 07:42:35;;;;;;;1999.90;999.90;;;;;;;22.97;44.53;94683.50;5069591;28;20028;-67
2022/05/23 07:45:01;;;;;;;1999.90;999.90;;;;;;;21.87;47.12;94679.81;5068694;28;20035;-68
2022/05/23 07:47:27;;;;;;;1999.90;999.90;;;;;;;21.81;47.69;94703.03;5068054;28;20041;-68
2022/05/23 07:49:52;;;;;;;1999.90;999.90;;;;;;;21.85;47.09;94684.06;5067933;28;20058;-68
2022/05/23 07:52:17;;;;;;;1999.90;999.90;;;;;;;23.35;43.67;94668.97;5087705;28;20036;-68
2022/05/23 08:02:55;;;;;;;1999.90;999.90;;;;;;;23.67;40.85;94657.16;5068647;28;20067;-68
2022/05/23 08:05:21;;;;;;;1999.90;999.90;;;;;;;24.15;39.86;94633.84;5069601;28;20107;-69
2022/05/23 08:07:46;;;;;;;1999.90;999.90;;;;;;;24.12;39.57;94640.88;5068966;28;20032;-67
2022/05/23 08:10:12;;;;;;;1999.90;999.90;;;;;;;24.06;40.11;94637.06;5069314;28;20479;-68
2022/05/23 08:12:38;;;;;;;1999.90;999.90;;;;;;;24.19;40.43;94631.88;5068278;28;20104;-68
2022/05/23 08:15:04;;;;;;;1999.90;999.90;;;;;;;24.37;39.34;94625.09;5069713;28;20127;-67
2022/05/23 08:17:30;;;;;;;1999.90;999.90;;;;;;;24.59;38.90;94620.19;5073525;28;20536;-68
2022/05/23 08:19:55;;;;;;;1999.90;999.90;;;;;;;24.42;39.42;94613.03;5074572;28;20469;-68
2022/05/23 08:22:22;;;;;;;1999.90;999.90;;;;;;;24.55;40.11;94572.47;5070683;28;20111;-68
2022/05/23 08:24:48;;;;;;;1999.90;999.90;;;;;;;24.15;40.77;94550.38;5069575;28;20044;-68
2022/05/23 08:27:13;;;;;;;1999.90;999.90;;;;;;;23.93;43.23;94540.91;5069563;28;20032;-68
2022/05/23 08:29:39;;;;;;;1999.90;999.90;;;;;;;23.98;44.38;94538.53;5069082;28;20070;-68
2022/05/23 08:32:06;;;;;;;1999.90;999.90;;;;;;;23.70;44.25;94530.66;5069096;28;20078;-68
2022/05/23 08:34:32;;;;;;;1999.90;999.90;;;;;;;23.99;43.91;94514.84;5069433;28;20103;-68
2022/05/23 08:36:58;;;;;;;1999.90;999.90;;;;;;;23.78;44.13;94486.75;5070775;28;20477;-68
2022/05/23 08:39:25;;;;;;;1999.90;999.90;;;;;;;23.39;44.27;94480.91;5069464;28;20073;-68
2022/05/23 08:41:52;;;;;;;1999.90;999.90;;;;;;;23.66;44.98;94505.50;5072976;28;20461;-68
2022/05/23 08:44:23;;;;;;;1999.90;999.90;;;;;;;24.57;42.54;94504.88;5090133;28;20032;-67
2022/05/23 08:47:00;;;;;;;1999.90;999.90;;;;;;;25.38;41.79;94510.28;5092093;28;20020;-68
2022/05/23 08:50:08;;;;;;;1999.90;999.90;;;;;;;25.42;40.98;94509.03;5072378;28;20093;-68
2022/05/23 08:52:49;;;;;;;1999.90;999.90;;;;;;;25.44;41.34;94518.75;5072481;28;20085;-67
2022/05/23 08:55:20;;;;;;;1999.90;999.90;;;;;;;24.93;40.99;94518.75;5071766;28;20032;-67
2022/05/23 08:58:08;;;;;;;1999.90;999.90;;;;;;;24.88;41.07;94517.25;5073216;28;20259;-68
2022/05/23 09:00:40;;;;;;;1999.90;999.90;;;;;;;24.98;41.55;94514.75;5071545;28;20040;-71
2022/05/23 09:03:12;;;;;;;1999.90;999.90;;;;;;;25.44;41.59;94510.56;5070862;28;20046;-73
2022/05/23 09:05:43;;;;;;;1999.90;999.90;;;;;;;25.42;40.45;94500.09;5073842;28;20053;-72
2022/05/23 09:08:12;;;;;;;1999.90;999.90;;;;;;;25.76;40.48;94507.34;5071472;28;20031;-71
2022/05/23 09:10:45;;;;;;;1999.90;999.90;;;;;;;25.77;39.86;94509.63;5072763;28;20020;-73
2022/05/23 09:13:14;;;;;;;1999.90;999.90;;;;;;;25.80;40.01;94497.91;5071852;28;20487;-72
2022/05/23 09:15:40;;;;;;;1999.90;999.90;;;;;;;25.64;39.89;94484.94;5072744;28;20052;-71
2022/05/23 09:18:10;;;;;;;1999.90;999.90;;;;;;;25.84;39.63;94481.50;5076556;28;20455;-71
2022/05/23 09:20:49;;;;;;;1999.90;999.90;;;;;;;26.28;38.90;94463.88;5092797;28;20024;-71
2022/05/23 09:23:38;;;;;;;1999.90;999.90;;;;;;;26.41;37.96;94456.59;5090054;28;20285;-72
2022/05/23 09:26:09;;;;;;;1999.90;999.90;;;;;;;26.50;38.07;94469.66;5091886;28;20028;-73
2022/05/23 09:28:36;;;;;;;;;;;;;;;26.66;37.79;94468.94;5092860;28;20052;-72
2022/05/23 09:31:23;;;;;;;1999.90;999.90;;;;;;;26.87;38.72;94454.03;5092490;28;20017;-68
2022/05/23 09:33:51;;;;;;;1999.90;999.90;;;;;;;27.38;38.10;94438.00;5072261;28;20516;-68
2022/05/23 09:36:22;;;;;;;1999.90;999.90;;;;;;;27.65;36.84;94441.22;5075156;28;20515;-69
2022/05/23 09:38:50;;;;;;;1999.90;999.90;;;;;;;28.43;35.45;94432.06;5081219;28;20446;-68
2022/05/23 09:49:53;;;;;;;1999.90;999.90;;;;;;;29.38;33.01;94408.34;5089235;28;20062;-68
2022/05/23 09:52:28;;;;;;;1999.90;999.90;;;;;;;29.18;33.25;94421.56;5077130;28;20473;-69
2022/05/23 09:54:58;;;;;;;1999.90;999.90;;;;;;;29.71;31.68;94408.78;5079209;28;20025;-67
2022/05/23 09:57:35;;;;;;;1999.90;999.90;;;;;;;30.15;31.56;94411.56;5073603;28;20128;-68
2022/05/23 10:00:10;;;;;;;1999.90;999.90;;;;;;;30.73;30.97;94415.66;5065000;28;20481;-68
2022/05/23 10:02:37;;;;;;;1999.90;999.90;;;;;;;30.88;31.31;94424.88;5074049;28;20028;-67
2022/05/23 10:05:07;;;;;;;1999.90;999.90;;;;;;;30.88;30.64;94399.41;5071637;28;20028;-68
2022/05/23 10:07:38;;;;;;;1999.90;999.90;;;;;;;31.08;29.99;94399.00;5074754;28;20044;-68
2022/05/23 10:10:08;;;;;;;1999.90;999.90;;;;;;;30.50;30.78;94401.19;5072824;28;20053;-68
2022/05/23 10:12:35;;;;;;;1999.90;999.90;;;;;;;30.72;30.62;94387.44;5069589;28;20037;-68
2022/05/23 10:15:24;;;;;;;1999.90;999.90;;;;;;;30.61;30.48;94395.31;5071219;28;20044;-68
2022/05/23 10:18:06;;;;;;;1999.90;999.90;;;;;;;30.88;30.08;94369.19;5071403;28;20027;-68
2022/05/23 10:20:50;;;;;;;1999.90;999.90;;;;;;;30.90;30.40;94361.25;5069366;28;20070;-68
2022/05/23 10:23:21;;;;;;;1999.90;999.90;;;;;;;30.78;30.03;94371.91;5083749;28;20115;-68
2022/05/23 10:25:56;;;;;;;1999.90;999.90;;;;;;;30.64;29.98;94377.94;5090282;28;20426;-68
2022/05/23 10:28:49;;;;;;;1999.90;999.90;;;;;;;30.43;30.18;94363.06;5091232;28;20025;-68
2022/05/23 10:31:18;;;;;;;1999.90;999.90;;;;;;;30.41;30.12;94354.53;5090533;28;20089;-68
2022/05/23 10:33:48;;;;;;;1999.90;999.90;;;;;;;30.71;30.22;94360.44;5093447;28;20039;-69
2022/05/23 10:36:24;;;;;;;1999.90;999.90;;;;;;;30.58;30.53;94346.03;5074854;28;20090;-68
2022/05/23 10:42:07;;;;;;;1999.90;999.90;;;;;;;30.77;31.11;94345.69;5033271;28;20029;-69
2022/05/23 10:44:56;;;;;;;1999.90;999.90;;;;;;;30.64;30.03;94346.97;5070996;28;20027;-69
2022/05/23 10:47:50;;;;;;;1999.90;999.90;;;;;;;29.98;30.57;94330.66;5059831;28;20086;-69
2022/05/23 10:50:34;;;;;;;1999.90;999.90;;;;;;;30.15;30.77;94328.47;5068071;28;20043;-72
2022/05/23 10:53:12;;;;;;;1999.90;999.90;;;;;;;30.25;30.97;94335.53;5070871;28;20025;-69
2022/05/23 10:56:04;;;;;;;1999.90;999.90;;;;;;;30.01;31.60;94333.28;5068851;28;20037;-68
2022/05/23 10:58:37;;;;;;;1999.90;999.90;;;;;;;30.15;31.25;94329.28;5070247;28;20032;-69
2022/05/23 11:01:02;;;;;;;1999.90;999.90;;;;;;;30.03;31.27;94341.06;5070220;28;20027;-68
2022/05/23 11:03:41;;;;;;;1999.90;999.90;;;;;;;30.26;31.11;94329.63;5070238;28;20028;-69
2022/05/23 11:06:29;;;;;;;1999.90;999.90;;;;;;;30.29;31.41;94342.41;5070805;28;20035;-68
2022/05/23 11:09:24;;;;;;;1999.90;999.90;;;;;;;29.61;31.55;94355.13;5072553;28;20578;-69
2022/05/23 11:12:13;;;;;;;1999.90;999.90;;;;;;;30.02;31.53;94345.00;5079603;28;20471;-69
2022/05/23 11:14:50;;;;;;;1999.90;999.90;;;;;;;30.36;31.00;94346.88;5036794;28;20041;-68
2022/05/23 11:17:25;;;;;;;1999.90;999.90;;;;;;;30.06;31.28;94340.16;5068789;28;20119;-70
2022/05/23 11:20:11;;;;;;;1999.90;999.90;;;;;;;30.54;31.38;94319.50;5069777;28;20103;-68
2022/05/23 11:22:43;;;;;;;1999.90;999.90;;;;;;;30.27;31.17;94322.91;5070298;28;20469;-69
2022/05/23 11:25:23;;;;;;;1999.90;999.90;;;;;;;30.59;30.54;94320.13;5080400;28;20544;-68
2022/05/23 11:34:09;;;;;;;1999.90;999.90;;;;;;;29.93;31.56;94298.34;5071498;28;20022;-68
2022/05/23 11:39:41;;;;;;;1999.90;999.90;;;;;;;29.94;31.16;94308.88;5073560;28;20426;-69
2022/05/23 11:42:15;;;;;;;1999.90;999.90;;;;;;;29.92;31.06;94286.63;5088719;28;20028;-69
2022/05/23 11:44:44;;;;;;;1999.90;999.90;;;;;;;30.11;31.15;94287.47;5078225;28;20480;-69
2022/05/23 11:47:25;;;;;;;1999.90;999.90;;;;;;;30.19;30.61;94282.50;5069991;28;20028;-69
2022/05/23 11:50:04;;;;;;;1999.90;999.90;;;;;;;30.40;30.91;94280.88;5069881;28;20024;-68
2022/05/23 11:52:33;;;;;;;1999.90;999.90;;;;;;;29.97;31.44;94282.53;5070179;28;20028;-69
2022/05/23 11:54:59;;;;;;;1999.90;999.90;;;;;;;30.50;30.84;94288.69;5076605;28;20407;-69
2022/05/23 11:57:33;;;;;;;1999.90;999.90;;;;;;;30.68;30.50;94278.97;5088676;28;20027;-69
2022/05/23 12:00:01;;;;;;;1999.90;999.90;;;;;;;30.75;30.32;94267.72;5082816;28;20032;-68
2022/05/23 12:02:27;;;;;;;1999.90;999.90;;;;;;;30.23;31.09;94267.41;5068289;28;20028;-69
2022/05/23 12:04:54;;;;;;;1999.90;999.90;;;;;;;29.94;32.09;94261.47;5073669;28;20108;-69